Disclaimer

Please do not use the information listed here in-flight or in-navigation, as they are not provided to us by the airports but are provided by volunteers, so they might be outdated.

Search


Regions


Airport information page

Radio informations:
ROCKY GND - 121.8 MHz
Automatic Terminal Information Service (ATIS) - 116.9 MHz

Airport informations:
Latitude: 23° 22' 55.00" S
Longitude: 150° 28' 31.00" E
Elevation: 34 feet - 10 meters
Operating hours: Remarks
Operating agency: Civil government, landing fees and diplomatic clearance may be required
Timezone: UTC+10
Fuel: Jet A1, without icing nhibitor.

100/130 MIL Spec, low lead, aviation gasoline (BLUE)

Runway information:
04/22 - 5397 x 98 feet< - >1645 x 30 meters
15/33 - 8622 x 148 feet< - >2628 x 45 meters

Recent METARs:
YBRK 142000Z AUTO 13006KT 9999 // NCD 22/19 Q1016
YBRK 142100Z AUTO 13007KT 9999 // NCD 24/19 Q1017
YBRK 142100Z AUTO 13007KT 9999 // NCD 24/19 Q1017

Airport on the map: